Updated17/05/2021 12:35pm 
 

Nearby Airport METAR Reports

 

KVSF - Springfield, Vermont, USA
Distance from station: WSW 8mi, 12km
Updated: 05/17/2021 11:54am
Clear
Clear
 Wind from varies
Wind: varies 3 mph , 6 km/h
Temperature: 72°F , 22°C
Dew Point: 41°F , 5°C
Humidity: 33%
Barometer: 30.26 inHg , 1024.7 hPa
Clouds: Clear
Visibility: 10 miles , 16 km
2021/05/17 15:54 KVSF 171554Z AUTO VRB03KT 10SM CLR 22/05 A3026 RMK AO2 SLP247 T02220050 $
KLEB - Lebanon, New Hampshire, USA
Distance from station: N 18mi, 29km
Updated: 05/17/2021 11:53am
Clear
Clear
 Wind from WNW
Wind: WNW 7 mph , 11 km/h
Temperature: 73°F , 23°C
Dew Point: 43°F , 6°C
Humidity: 33%
Barometer: 30.25 inHg , 1024.4 hPa
Clouds: Clear
Visibility: 10 miles , 16 km
2021/05/17 15:53 KLEB 171553Z 30006KT 10SM CLR 23/06 A3025 RMK AO2 SLP240 T02330061
KRUT - Rutland State, Vermont, USA
Distance from station: WNW 31mi, 50km
Updated: 05/17/2021 11:56am
Clear
Clear
 Wind from N
Wind: N 12 mph , 19 km/h
Temperature: 72°F , 22°C
Dew Point: 43°F , 6°C
Humidity: 36%
Barometer: 30.26 inHg , 1024.7 hPa
Clouds: Clear
Visibility: 10 miles , 16 km
2021/05/17 15:56 KRUT 171556Z AUTO 36010KT 10SM CLR 22/06 A3026 RMK AO2 SLP242 T02170061 $
 
KEEN - Keene/Dillant, New Hampshire, USA
Distance from station: S 34mi, 55km
Updated: 05/17/2021 11:56am
Clear
Clear
 Wind from varies
Wind: varies 5 mph , 7 km/h
Temperature: 73°F , 23°C
Dew Point: 43°F , 6°C
Humidity: 33%
Barometer: 30.26 inHg , 1024.7 hPa
Clouds: Clear
Visibility: 8 miles , 13 km
2021/05/17 15:56 KEEN 171556Z AUTO VRB04KT 8SM CLR 23/06 A3026 RMK AO2 SLP249 T02330056 $
K1P1 - Plymouth, New Hampshire, USA
Distance from station: NE 42mi, 67km
Updated: 05/17/2021 12:35pm
Light rain, Mostly cloudy
Light rain, Mostly cloudy
 Wind from NE
Wind: NE 3 mph , 6 km/h
Temperature: 72°F , 22°C
Dew Point: 41°F , 5°C
Humidity: 33%
Barometer: 30.23 inHg , 1023.7 hPa
Summary: Light rain
Clouds: Mostly cloudy
Visibility: 10 miles , 16 km
Cloud details: Partly cloudy 8000 ft
Mostly cloudy 10000 ft
Mostly cloudy 12000 ft
2021/05/17 16:35 K1P1 171635Z AUTO 04003KT 10SM -RA SCT080 BKN100 BKN120 22/05 A3023 RMK AO2 T02180047
KAFN - Jaffrey, New Hampshire, USA
Distance from station: SSE 44mi, 70km
Updated: 05/17/2021 11:52am
Clear
Clear
 Wind from varies
Wind: varies 6 mph , 9 km/h
Temperature: 72°F , 22°C
Dew Point: 39°F , 4°C
Humidity: 31%
Barometer: 30.27 inHg , 1025.1 hPa
Clouds: Clear
Visibility: 10 miles , 16 km
2021/05/17 15:52 KAFN 171552Z AUTO VRB05KT 10SM CLR 22/04 A3027 RMK AO2 SLP255 T02170039
 
KCON - Concord, New Hampshire, USA
Distance from station: ESE 45mi, 73km
Updated: 05/17/2021 11:51am
Few Clouds
Few Clouds
 Wind from W
Wind: W 7 mph , 11 km/h
Temperature: 73°F , 23°C
Dew Point: 43°F , 6°C
Humidity: 33%
Barometer: 30.25 inHg , 1024.4 hPa
Clouds: Few Clouds
Visibility: 10 miles , 16 km
Cloud details: Few Clouds 7000 ft
2021/05/17 15:51 KCON 171551Z AUTO 28006KT 10SM FEW070 23/06 A3025 RMK AO2 SLP246 T02280056
KLCI - Laconia Muni, New Hampshire, USA
Distance from station: ENE 49mi, 80km
Updated: 05/17/2021 11:56am
Clear
Clear
 Wind from NNE
Wind: NNE 6 mph , 9 km/h
Temperature: 70°F , 21°C
Dew Point: 43°F , 6°C
Humidity: 38%
Barometer: 30.27 inHg , 1025.1 hPa
Clouds: Clear
Visibility: 10 miles , 16 km
2021/05/17 15:56 KLCI 171556Z AUTO 02005KT 10SM CLR 21/06 A3027 RMK AO2 SLP250 T02060056
KDDH - Bennington, Vermont, USA
Distance from station: SW 55mi, 89km
Updated: 05/17/2021 11:54am
Clear
Clear
 Wind from N
Wind: N 8 mph , 13 km/h
Temperature: 72°F , 22°C
Dew Point: 43°F , 6°C
Humidity: 36%
Barometer: 30.27 inHg , 1025.1 hPa
Clouds: Clear
Visibility: 10 miles , 16 km
2021/05/17 15:54 KDDH 171554Z AUTO 01007KT 10SM CLR 22/06 A3027 RMK AO2 SLP250 T02220061
 
K6B0 - Middlebury, Vermont, USA
Distance from station: NW 56mi, 90km
Updated: 05/17/2021 12:15pm
Clear
Clear
 Wind from NNW
Wind: NNW 6 mph , 9 km/h
Temperature: 72°F , 22°C
Dew Point: 43°F , 6°C
Humidity: 36%
Barometer: 30.25 inHg , 1024.4 hPa
Clouds: Clear
Visibility: 10 miles , 16 km
2021/05/17 16:15 K6B0 171615Z AUTO 34005KT 10SM CLR 22/06 A3025 RMK AO2 LTG DSNT NE AND SE T02200058
KMHT - Manchester, New Hampshire, USA
Distance from station: ESE 56mi, 90km
Updated: 05/17/2021 11:53am
Partly cloudy
Partly cloudy
 Wind from calm
Wind: Calm
Temperature: 73°F , 23°C
Dew Point: 39°F , 4°C
Humidity: 29%
Barometer: 30.25 inHg , 1024.4 hPa
Clouds: Partly cloudy
Visibility: 10 miles , 16 km
Cloud details: Partly cloudy 7000 ft
2021/05/17 15:53 KMHT 171553Z 00000KT 10SM SCT070 23/04 A3025 RMK AO2 SLP252 T02330039
KORE - Orange, Massachusetts, USA
Distance from station: S 56mi, 90km
Updated: 05/17/2021 11:52am
Few Clouds
Few Clouds
 Wind from SSE
Wind: SSE 5 mph , 7 km/h
Temperature: 72°F , 22°C
Dew Point: 39°F , 4°C
Humidity: 31%
Barometer: 30.27 inHg , 1025.1 hPa
Clouds: Few Clouds
Visibility: 10 miles , 16 km
Cloud details: Few Clouds 9000 ft
2021/05/17 15:52 KORE 171552Z AUTO 16004KT 10SM FEW090 22/04 A3027 RMK AO2 SLP250 T02220039
 
KMPV - Montpelier/Barre, Vermont, USA
Distance from station: N 58mi, 93km
Updated: 05/17/2021 11:51am
Clear
Clear
 Wind from S
Wind: S 5 mph , 7 km/h
Temperature: 68°F , 20°C
Dew Point: 39°F , 4°C
Humidity: 35%
Barometer: 30.31 inHg , 1026.4 hPa
Clouds: Clear
Visibility: 10 miles , 16 km
2021/05/17 15:51 KMPV 171551Z AUTO 19004KT 10SM CLR 20/04 A3031 RMK AO2 SLP266 T02000044
KASH - Nashua/Boire Fld, New Hampshire, USA
Distance from station: SE 59mi, 95km
Updated: 05/17/2021 11:56am
Clear
Clear
 Wind from varies
Wind: varies 6 mph , 9 km/h
Temperature: 73°F , 23°C
Dew Point: 43°F , 6°C
Humidity: 33%
Barometer: 30.26 inHg , 1024.7 hPa
Clouds: Clear
Visibility: 10 miles , 16 km
2021/05/17 15:56 KASH 171556Z VRB05KT 10SM CLR 23/06 A3026 RMK AO2 SLP251 T02330061
KAQW - North Adams, Massachusetts, USA
Distance from station: SW 62mi, 99km
Updated: 05/17/2021 11:52am
Clear
Clear
 Wind from W
Wind: W 8 mph , 13 km/h
Temperature: 72°F , 22°C
Dew Point: 39°F , 4°C
Humidity: 31%
Barometer: 30.27 inHg , 1025.1 hPa
Clouds: Clear
Visibility: 10 miles , 16 km
2021/05/17 15:52 KAQW 171552Z AUTO 28007KT 10SM CLR 22/04 A3027 RMK AO2 SLP249 T02220044
 
KGFL - Glens Falls, New York, USA
Distance from station: W 63mi, 101km
Updated: 05/17/2021 5:53am
NOT Current
Clear
Clear
 Wind from calm
Wind: Calm
Temperature: 43°F , 6°C
Dew Point: 41°F , 5°C
Humidity: 93%
Barometer: 30.26 inHg , 1024.7 hPa
Clouds: Clear
Visibility: 10 miles , 16 km
2021/05/17 09:53 KGFL 170953Z AUTO 00000KT 10SM CLR 06/05 A3026 RMK AO2 SLP249 T00610050
KFIT - Fitchburg, Massachusetts, USA
Distance from station: SSE 65mi, 105km
Updated: 05/17/2021 11:52am
Clear
Clear
 Wind from S
Wind: S 5 mph , 7 km/h
Temperature: 73°F , 23°C
Dew Point: 43°F , 6°C
Humidity: 33%
Barometer: 30.26 inHg , 1024.7 hPa
Clouds: Clear
Visibility: 10 miles , 16 km
2021/05/17 15:52 KFIT 171552Z AUTO 19004KT 10SM CLR 23/06 A3026 RMK AO2 SLP247 T02330056
KDAW - Rochester, New Hampshire, USA
Distance from station: E 73mi, 118km
Updated: 05/17/2021 11:51am
Few Clouds
Few Clouds
 Wind from ENE
Wind: ENE 6 mph , 9 km/h
Temperature: 73°F , 23°C
Dew Point: 43°F , 6°C
Humidity: 33%
Barometer: 30.25 inHg , 1024.4 hPa
Clouds: Few Clouds
Visibility: 10 miles , 16 km
Cloud details: Few Clouds 7000 ft
2021/05/17 15:51 KDAW 171551Z AUTO 06005KT 10SM FEW070 23/06 A3025 RMK AO2 SLP241 T02330056
 
K1V4 - St. Johnsbury, Vermont, USA
Distance from station: NNE 74mi, 119km
Updated: 05/17/2021 10:54am
NOT Current

 
Temperature: 70°F , 21°C
Dew Point: 43°F , 6°C
Humidity: 38%
Barometer: 30.26 inHg , 1024.7 hPa
2021/05/17 14:54 K1V4 171454Z AUTO 21/06 A3026 RMK AO1 SLP241 T02060061 58011
KLWM - Lawrence, Massachusetts, USA
Distance from station: SE 77mi, 124km
Updated: 05/17/2021 11:54am
Clear
Clear
 Wind from calm
Wind: Calm
Temperature: 73°F , 23°C
Dew Point: 45°F , 7°C
Humidity: 36%
Barometer: 30.27 inHg , 1025.1 hPa
Clouds: Clear
Visibility: 10 miles , 16 km
2021/05/17 15:54 KLWM 171554Z 00000KT 10SM CLR 23/07 A3027 RMK AO2 SLP250 T02280072



Flag Counter
free counter page views since 4/29/2009